sensor_id;sensor_type;location;lat;lon;timestamp;temperature;humidity
80212;DHT22;69530;37.974;23.708;2023-04-25T00:01:05;24.70;37.60
80212;DHT22;69530;37.974;23.708;2023-04-25T00:03:32;24.70;37.60
80212;DHT22;69530;37.974;23.708;2023-04-25T00:05:59;24.70;37.80
80212;DHT22;69530;37.974;23.708;2023-04-25T00:08:28;24.70;37.80
80212;DHT22;69530;37.974;23.708;2023-04-25T00:10:54;24.70;37.70
80212;DHT22;69530;37.974;23.708;2023-04-25T00:13:20;24.70;37.70
80212;DHT22;69530;37.974;23.708;2023-04-25T00:15:46;24.70;37.70
80212;DHT22;69530;37.974;23.708;2023-04-25T00:18:14;24.70;37.50
80212;DHT22;69530;37.974;23.708;2023-04-25T00:20:39;24.70;37.50
80212;DHT22;69530;37.974;23.708;2023-04-25T00:23:05;24.70;37.40
80212;DHT22;69530;37.974;23.708;2023-04-25T00:25:31;24.70;37.30
80212;DHT22;69530;37.974;23.708;2023-04-25T00:27:57;24.70;37.20
80212;DHT22;69530;37.974;23.708;2023-04-25T00:30:23;24.70;37.10
80212;DHT22;69530;37.974;23.708;2023-04-25T00:32:48;24.70;36.80
80212;DHT22;69530;37.974;23.708;2023-04-25T00:35:15;24.70;36.50
80212;DHT22;69530;37.974;23.708;2023-04-25T00:37:41;24.70;36.20
80212;DHT22;69530;37.974;23.708;2023-04-25T00:40:07;24.70;36.20
80212;DHT22;69530;37.974;23.708;2023-04-25T00:42:34;24.70;36.00
80212;DHT22;69530;37.974;23.708;2023-04-25T00:45:01;24.70;35.90
80212;DHT22;69530;37.974;23.708;2023-04-25T00:47:28;24.70;36.00
80212;DHT22;69530;37.974;23.708;2023-04-25T00:49:54;24.70;35.90
80212;DHT22;69530;37.974;23.708;2023-04-25T00:52:20;24.70;36.00
80212;DHT22;69530;37.974;23.708;2023-04-25T00:54:46;24.70;35.80
80212;DHT22;69530;37.974;23.708;2023-04-25T00:57:12;24.70;36.00
80212;DHT22;69530;37.974;23.708;2023-04-25T00:59:38;24.70;35.90
80212;DHT22;69530;37.974;23.708;2023-04-25T01:02:04;24.70;35.90
80212;DHT22;69530;37.974;23.708;2023-04-25T01:04:30;24.70;36.00
80212;DHT22;69530;37.974;23.708;2023-04-25T01:06:56;24.70;37.00
80212;DHT22;69530;37.974;23.708;2023-04-25T01:09:23;24.70;35.70
80212;DHT22;69530;37.974;23.708;2023-04-25T01:11:49;24.70;35.40
80212;DHT22;69530;37.974;23.708;2023-04-25T01:14:16;24.70;35.20
80212;DHT22;69530;37.974;23.708;2023-04-25T01:16:42;24.70;35.10
80212;DHT22;69530;37.974;23.708;2023-04-25T01:19:09;24.70;35.10
80212;DHT22;69530;37.974;23.708;2023-04-25T01:21:39;24.70;35.00
80212;DHT22;69530;37.974;23.708;2023-04-25T01:24:05;24.70;34.90
80212;DHT22;69530;37.974;23.708;2023-04-25T01:26:32;24.70;34.80
80212;DHT22;69530;37.974;23.708;2023-04-25T01:28:59;24.70;34.80
80212;DHT22;69530;37.974;23.708;2023-04-25T01:31:27;24.70;34.70
80212;DHT22;69530;37.974;23.708;2023-04-25T01:33:53;24.70;34.70
80212;DHT22;69530;37.974;23.708;2023-04-25T01:36:19;24.70;34.60
80212;DHT22;69530;37.974;23.708;2023-04-25T01:38:45;24.60;34.60
80212;DHT22;69530;37.974;23.708;2023-04-25T01:41:13;24.70;34.60
80212;DHT22;69530;37.974;23.708;2023-04-25T01:43:40;24.60;34.50
80212;DHT22;69530;37.974;23.708;2023-04-25T01:46:06;24.60;34.40
80212;DHT22;69530;37.974;23.708;2023-04-25T01:48:32;24.60;34.70
80212;DHT22;69530;37.974;23.708;2023-04-25T01:50:58;24.70;34.70
80212;DHT22;69530;37.974;23.708;2023-04-25T01:53:28;24.60;34.60
80212;DHT22;69530;37.974;23.708;2023-04-25T01:55:54;24.60;34.60
80212;DHT22;69530;37.974;23.708;2023-04-25T01:58:19;24.60;34.50
80212;DHT22;69530;37.974;23.708;2023-04-25T02:00:46;24.60;34.40
80212;DHT22;69530;37.974;23.708;2023-04-25T02:03:12;24.70;34.30
80212;DHT22;69530;37.974;23.708;2023-04-25T02:05:38;24.60;34.20
80212;DHT22;69530;37.974;23.708;2023-04-25T02:08:06;24.60;34.10
80212;DHT22;69530;37.974;23.708;2023-04-25T02:10:33;24.60;34.00
80212;DHT22;69530;37.974;23.708;2023-04-25T02:12:59;24.60;34.00
80212;DHT22;69530;37.974;23.708;2023-04-25T02:15:25;24.60;34.00
80212;DHT22;69530;37.974;23.708;2023-04-25T02:17:51;24.60;34.00
80212;DHT22;69530;37.974;23.708;2023-04-25T02:20:23;24.60;34.00
80212;DHT22;69530;37.974;23.708;2023-04-25T02:22:50;24.60;33.90
80212;DHT22;69530;37.974;23.708;2023-04-25T02:25:16;24.60;33.80
80212;DHT22;69530;37.974;23.708;2023-04-25T02:27:42;24.60;33.60
80212;DHT22;69530;37.974;23.708;2023-04-25T02:30:08;24.60;33.60
80212;DHT22;69530;37.974;23.708;2023-04-25T02:32:34;24.60;33.50
80212;DHT22;69530;37.974;23.708;2023-04-25T02:35:01;24.60;33.50
80212;DHT22;69530;37.974;23.708;2023-04-25T02:37:37;24.60;33.40
80212;DHT22;69530;37.974;23.708;2023-04-25T02:40:03;24.60;33.40
80212;DHT22;69530;37.974;23.708;2023-04-25T02:42:30;24.60;33.40
80212;DHT22;69530;37.974;23.708;2023-04-25T02:44:56;24.60;33.30
80212;DHT22;69530;37.974;23.708;2023-04-25T02:47:21;24.60;33.30
80212;DHT22;69530;37.974;23.708;2023-04-25T02:49:47;24.60;33.30
80212;DHT22;69530;37.974;23.708;2023-04-25T02:52:13;24.50;33.20
80212;DHT22;69530;37.974;23.708;2023-04-25T02:54:40;24.50;33.20
80212;DHT22;69530;37.974;23.708;2023-04-25T02:57:06;24.50;33.20
80212;DHT22;69530;37.974;23.708;2023-04-25T02:59:32;24.50;33.20
80212;DHT22;69530;37.974;23.708;2023-04-25T03:01:58;24.50;33.10
80212;DHT22;69530;37.974;23.708;2023-04-25T03:04:23;24.50;33.20
80212;DHT22;69530;37.974;23.708;2023-04-25T03:06:50;24.50;33.20
80212;DHT22;69530;37.974;23.708;2023-04-25T03:09:16;24.50;33.10
80212;DHT22;69530;37.974;23.708;2023-04-25T03:11:43;24.50;33.20
80212;DHT22;69530;37.974;23.708;2023-04-25T03:14:09;24.50;33.10
80212;DHT22;69530;37.974;23.708;2023-04-25T03:16:35;24.50;33.20
80212;DHT22;69530;37.974;23.708;2023-04-25T03:19:01;24.50;33.30
80212;DHT22;69530;37.974;23.708;2023-04-25T03:21:27;24.50;33.40
80212;DHT22;69530;37.974;23.708;2023-04-25T03:23:53;24.50;33.30
80212;DHT22;69530;37.974;23.708;2023-04-25T03:26:19;24.50;33.40
80212;DHT22;69530;37.974;23.708;2023-04-25T03:28:45;24.50;33.40
80212;DHT22;69530;37.974;23.708;2023-04-25T03:31:10;24.50;33.40
80212;DHT22;69530;37.974;23.708;2023-04-25T03:33:36;24.50;33.50
80212;DHT22;69530;37.974;23.708;2023-04-25T03:36:02;24.50;33.50
80212;DHT22;69530;37.974;23.708;2023-04-25T03:38:27;24.50;33.60
80212;DHT22;69530;37.974;23.708;2023-04-25T03:40:54;24.50;33.70
80212;DHT22;69530;37.974;23.708;2023-04-25T03:43:19;24.50;33.60
80212;DHT22;69530;37.974;23.708;2023-04-25T03:45:45;24.50;33.60
80212;DHT22;69530;37.974;23.708;2023-04-25T03:48:11;24.50;33.60
80212;DHT22;69530;37.974;23.708;2023-04-25T03:50:37;24.50;33.60
80212;DHT22;69530;37.974;23.708;2023-04-25T03:53:03;24.50;33.70
80212;DHT22;69530;37.974;23.708;2023-04-25T03:55:28;24.50;33.70
80212;DHT22;69530;37.974;23.708;2023-04-25T03:57:54;24.50;33.60
80212;DHT22;69530;37.974;23.708;2023-04-25T04:00:20;24.50;33.70
80212;DHT22;69530;37.974;23.708;2023-04-25T04:02:45;24.50;33.70
80212;DHT22;69530;37.974;23.708;2023-04-25T04:05:11;24.50;33.80
80212;DHT22;69530;37.974;23.708;2023-04-25T04:07:37;24.50;33.80
80212;DHT22;69530;37.974;23.708;2023-04-25T04:10:09;24.50;33.80
80212;DHT22;69530;37.974;23.708;2023-04-25T04:12:35;24.70;34.00
80212;DHT22;69530;37.974;23.708;2023-04-25T04:15:05;24.90;34.20
80212;DHT22;69530;37.974;23.708;2023-04-25T04:17:31;25.10;33.50
80212;DHT22;69530;37.974;23.708;2023-04-25T04:19:57;25.40;33.10
80212;DHT22;69530;37.974;23.708;2023-04-25T04:22:23;25.60;33.20
80212;DHT22;69530;37.974;23.708;2023-04-25T04:24:49;25.80;33.20
80212;DHT22;69530;37.974;23.708;2023-04-25T04:27:19;26.00;32.90
80212;DHT22;69530;37.974;23.708;2023-04-25T04:29:46;26.20;32.60
80212;DHT22;69530;37.974;23.708;2023-04-25T04:32:12;26.40;32.30
80212;DHT22;69530;37.974;23.708;2023-04-25T04:34:38;26.50;32.10
80212;DHT22;69530;37.974;23.708;2023-04-25T04:37:05;26.70;31.80
80212;DHT22;69530;37.974;23.708;2023-04-25T04:39:32;26.90;31.70
80212;DHT22;69530;37.974;23.708;2023-04-25T04:41:58;27.10;31.20
80212;DHT22;69530;37.974;23.708;2023-04-25T04:44:25;27.40;30.90
80212;DHT22;69530;37.974;23.708;2023-04-25T04:46:51;27.70;30.60
80212;DHT22;69530;37.974;23.708;2023-04-25T04:49:17;27.90;30.10
80212;DHT22;69530;37.974;23.708;2023-04-25T04:51:43;28.10;30.00
80212;DHT22;69530;37.974;23.708;2023-04-25T04:54:12;28.20;29.80
80212;DHT22;69530;37.974;23.708;2023-04-25T04:56:38;28.50;29.50
80212;DHT22;69530;37.974;23.708;2023-04-25T04:59:04;28.70;29.20
80212;DHT22;69530;37.974;23.708;2023-04-25T05:01:30;28.80;29.00
80212;DHT22;69530;37.974;23.708;2023-04-25T05:03:56;28.80;28.80
80212;DHT22;69530;37.974;23.708;2023-04-25T05:06:27;28.70;28.80
80212;DHT22;69530;37.974;23.708;2023-04-25T05:08:55;28.40;29.10
80212;DHT22;69530;37.974;23.708;2023-04-25T05:11:21;28.10;29.40
80212;DHT22;69530;37.974;23.708;2023-04-25T05:13:47;27.80;29.70
80212;DHT22;69530;37.974;23.708;2023-04-25T05:16:13;27.50;29.90
80212;DHT22;69530;37.974;23.708;2023-04-25T05:18:39;27.30;30.10
80212;DHT22;69530;37.974;23.708;2023-04-25T05:21:05;27.10;30.40
80212;DHT22;69530;37.974;23.708;2023-04-25T05:23:32;26.90;30.50
80212;DHT22;69530;37.974;23.708;2023-04-25T05:25:59;26.80;30.50
80212;DHT22;69530;37.974;23.708;2023-04-25T05:28:24;26.70;30.40
80212;DHT22;69530;37.974;23.708;2023-04-25T05:30:50;26.60;30.40
80212;DHT22;69530;37.974;23.708;2023-04-25T05:33:16;26.50;30.50
80212;DHT22;69530;37.974;23.708;2023-04-25T05:35:42;26.40;30.50
80212;DHT22;69530;37.974;23.708;2023-04-25T05:38:08;26.40;30.50
80212;DHT22;69530;37.974;23.708;2023-04-25T05:40:34;26.40;30.50
80212;DHT22;69530;37.974;23.708;2023-04-25T05:43:00;26.30;30.50
80212;DHT22;69530;37.974;23.708;2023-04-25T05:45:26;26.30;30.50
80212;DHT22;69530;37.974;23.708;2023-04-25T05:47:52;26.20;30.40
80212;DHT22;69530;37.974;23.708;2023-04-25T05:50:17;26.20;30.40
80212;DHT22;69530;37.974;23.708;2023-04-25T05:52:43;26.10;30.30
80212;DHT22;69530;37.974;23.708;2023-04-25T05:55:09;26.10;30.30
80212;DHT22;69530;37.974;23.708;2023-04-25T05:57:35;26.00;30.30
80212;DHT22;69530;37.974;23.708;2023-04-25T06:00:01;26.00;30.30
80212;DHT22;69530;37.974;23.708;2023-04-25T06:02:27;26.00;30.40
80212;DHT22;69530;37.974;23.708;2023-04-25T06:04:53;26.00;30.40
80212;DHT22;69530;37.974;23.708;2023-04-25T06:07:19;26.00;30.40
80212;DHT22;69530;37.974;23.708;2023-04-25T06:09:45;26.00;30.40
80212;DHT22;69530;37.974;23.708;2023-04-25T06:12:11;25.90;30.30
80212;DHT22;69530;37.974;23.708;2023-04-25T06:14:37;25.90;30.20
80212;DHT22;69530;37.974;23.708;2023-04-25T06:17:03;25.90;31.30
80212;DHT22;69530;37.974;23.708;2023-04-25T06:19:34;25.90;30.30
80212;DHT22;69530;37.974;23.708;2023-04-25T06:22:01;25.80;30.20
80212;DHT22;69530;37.974;23.708;2023-04-25T06:24:27;25.80;30.40
80212;DHT22;69530;37.974;23.708;2023-04-25T06:26:54;25.70;30.30
80212;DHT22;69530;37.974;23.708;2023-04-25T06:29:20;25.70;30.40
80212;DHT22;69530;37.974;23.708;2023-04-25T06:31:46;25.60;30.40
80212;DHT22;69530;37.974;23.708;2023-04-25T06:34:11;25.60;30.40
80212;DHT22;69530;37.974;23.708;2023-04-25T06:36:37;25.60;30.40
80212;DHT22;69530;37.974;23.708;2023-04-25T06:39:03;25.60;30.40
80212;DHT22;69530;37.974;23.708;2023-04-25T06:41:29;25.60;30.50
80212;DHT22;69530;37.974;23.708;2023-04-25T06:43:54;25.60;30.50
80212;DHT22;69530;37.974;23.708;2023-04-25T06:46:20;25.50;31.50
80212;DHT22;69530;37.974;23.708;2023-04-25T06:48:46;25.50;30.50
80212;DHT22;69530;37.974;23.708;2023-04-25T06:51:12;25.50;30.50
80212;DHT22;69530;37.974;23.708;2023-04-25T06:53:39;25.40;30.50
80212;DHT22;69530;37.974;23.708;2023-04-25T06:56:05;25.40;30.60
80212;DHT22;69530;37.974;23.708;2023-04-25T06:58:31;25.40;30.70
80212;DHT22;69530;37.974;23.708;2023-04-25T07:00:57;25.30;31.20
80212;DHT22;69530;37.974;23.708;2023-04-25T07:03:23;25.30;31.40
80212;DHT22;69530;37.974;23.708;2023-04-25T07:05:49;25.30;31.10
80212;DHT22;69530;37.974;23.708;2023-04-25T07:08:17;25.30;31.00
80212;DHT22;69530;37.974;23.708;2023-04-25T07:10:46;25.30;30.80
80212;DHT22;69530;37.974;23.708;2023-04-25T07:13:11;25.30;30.70
80212;DHT22;69530;37.974;23.708;2023-04-25T07:15:37;25.30;30.80
80212;DHT22;69530;37.974;23.708;2023-04-25T07:18:03;25.40;30.60
80212;DHT22;69530;37.974;23.708;2023-04-25T07:20:29;25.40;30.60
80212;DHT22;69530;37.974;23.708;2023-04-25T07:22:56;25.40;30.70
80212;DHT22;69530;37.974;23.708;2023-04-25T07:25:22;25.40;30.80
80212;DHT22;69530;37.974;23.708;2023-04-25T07:27:48;25.30;31.00
80212;DHT22;69530;37.974;23.708;2023-04-25T07:30:14;25.30;31.20
80212;DHT22;69530;37.974;23.708;2023-04-25T07:32:39;25.30;31.40
80212;DHT22;69530;37.974;23.708;2023-04-25T07:35:06;25.20;31.50
80212;DHT22;69530;37.974;23.708;2023-04-25T07:37:33;25.30;32.60
80212;DHT22;69530;37.974;23.708;2023-04-25T07:39:59;25.30;31.60
80212;DHT22;69530;37.974;23.708;2023-04-25T07:42:25;25.30;31.60
80212;DHT22;69530;37.974;23.708;2023-04-25T07:44:52;25.30;31.40
80212;DHT22;69530;37.974;23.708;2023-04-25T07:47:19;25.20;31.30
80212;DHT22;69530;37.974;23.708;2023-04-25T07:49:44;25.20;31.30
80212;DHT22;69530;37.974;23.708;2023-04-25T07:52:11;25.20;31.30
80212;DHT22;69530;37.974;23.708;2023-04-25T07:54:37;25.30;31.40
80212;DHT22;69530;37.974;23.708;2023-04-25T07:57:03;25.20;31.40
80212;DHT22;69530;37.974;23.708;2023-04-25T07:59:29;25.30;31.60
80212;DHT22;69530;37.974;23.708;2023-04-25T08:01:54;25.30;31.60
80212;DHT22;69530;37.974;23.708;2023-04-25T08:04:22;25.30;31.60
80212;DHT22;69530;37.974;23.708;2023-04-25T08:06:48;25.30;31.60
80212;DHT22;69530;37.974;23.708;2023-04-25T08:09:14;25.30;31.70
80212;DHT22;69530;37.974;23.708;2023-04-25T08:11:40;25.40;31.80
80212;DHT22;69530;37.974;23.708;2023-04-25T08:14:07;25.40;31.80
80212;DHT22;69530;37.974;23.708;2023-04-25T08:16:33;25.40;31.80
80212;DHT22;69530;37.974;23.708;2023-04-25T08:18:59;25.40;31.80
80212;DHT22;69530;37.974;23.708;2023-04-25T08:21:25;25.40;31.80
80212;DHT22;69530;37.974;23.708;2023-04-25T08:23:52;25.40;31.80
80212;DHT22;69530;37.974;23.708;2023-04-25T08:26:18;25.40;31.80
80212;DHT22;69530;37.974;23.708;2023-04-25T08:28:44;25.40;31.70
80212;DHT22;69530;37.974;23.708;2023-04-25T08:31:10;25.40;31.80
80212;DHT22;69530;37.974;23.708;2023-04-25T08:33:36;25.40;31.80
80212;DHT22;69530;37.974;23.708;2023-04-25T08:36:02;25.40;31.80
80212;DHT22;69530;37.974;23.708;2023-04-25T08:38:28;25.40;31.60
80212;DHT22;69530;37.974;23.708;2023-04-25T08:40:54;25.40;31.60
80212;DHT22;69530;37.974;23.708;2023-04-25T08:43:20;25.40;31.60
80212;DHT22;69530;37.974;23.708;2023-04-25T08:45:47;25.40;31.60
80212;DHT22;69530;37.974;23.708;2023-04-25T08:48:14;25.40;31.40
80212;DHT22;69530;37.974;23.708;2023-04-25T08:50:52;25.40;31.50
80212;DHT22;69530;37.974;23.708;2023-04-25T08:53:26;25.40;31.60
80212;DHT22;69530;37.974;23.708;2023-04-25T08:55:53;25.40;31.70
80212;DHT22;69530;37.974;23.708;2023-04-25T08:58:20;25.40;31.80
80212;DHT22;69530;37.974;23.708;2023-04-25T09:00:47;25.40;31.80
80212;DHT22;69530;37.974;23.708;2023-04-25T09:03:13;25.40;31.80
80212;DHT22;69530;37.974;23.708;2023-04-25T09:05:40;25.40;31.60
80212;DHT22;69530;37.974;23.708;2023-04-25T09:08:07;25.40;31.70
80212;DHT22;69530;37.974;23.708;2023-04-25T09:10:33;25.40;31.70
80212;DHT22;69530;37.974;23.708;2023-04-25T09:13:14;25.40;31.60
80212;DHT22;69530;37.974;23.708;2023-04-25T09:15:54;25.40;31.70
80212;DHT22;69530;37.974;23.708;2023-04-25T09:20:51;25.30;31.70
80212;DHT22;69530;37.974;23.708;2023-04-25T09:23:19;25.40;31.70
80212;DHT22;69530;37.974;23.708;2023-04-25T09:25:48;25.40;31.60
80212;DHT22;69530;37.974;23.708;2023-04-25T09:28:34;25.40;31.60
80212;DHT22;69530;37.974;23.708;2023-04-25T09:31:24;25.40;31.60
80212;DHT22;69530;37.974;23.708;2023-04-25T09:33:59;25.30;31.60
80212;DHT22;69530;37.974;23.708;2023-04-25T09:36:31;25.30;31.70
80212;DHT22;69530;37.974;23.708;2023-04-25T09:39:01;25.40;31.90
80212;DHT22;69530;37.974;23.708;2023-04-25T09:41:28;25.30;31.90
80212;DHT22;69530;37.974;23.708;2023-04-25T09:43:57;25.40;32.00
80212;DHT22;69530;37.974;23.708;2023-04-25T09:46:24;25.40;32.00
80212;DHT22;69530;37.974;23.708;2023-04-25T09:48:50;25.30;32.30
80212;DHT22;69530;37.974;23.708;2023-04-25T09:51:16;25.40;32.30
80212;DHT22;69530;37.974;23.708;2023-04-25T09:53:44;25.30;32.20
80212;DHT22;69530;37.974;23.708;2023-04-25T09:56:12;25.30;32.20
80212;DHT22;69530;37.974;23.708;2023-04-25T09:58:42;25.30;32.10
80212;DHT22;69530;37.974;23.708;2023-04-25T10:01:09;25.30;32.00
80212;DHT22;69530;37.974;23.708;2023-04-25T10:03:37;25.40;31.90
80212;DHT22;69530;37.974;23.708;2023-04-25T10:06:18;25.40;31.90
80212;DHT22;69530;37.974;23.708;2023-04-25T10:08:45;25.40;32.00
80212;DHT22;69530;37.974;23.708;2023-04-25T10:11:15;25.30;32.00
80212;DHT22;69530;37.974;23.708;2023-04-25T10:13:41;25.30;32.20
80212;DHT22;69530;37.974;23.708;2023-04-25T10:16:08;25.30;32.00
80212;DHT22;69530;37.974;23.708;2023-04-25T10:18:33;25.30;32.10
80212;DHT22;69530;37.974;23.708;2023-04-25T10:21:01;25.30;32.20
80212;DHT22;69530;37.974;23.708;2023-04-25T10:23:27;25.30;32.20
80212;DHT22;69530;37.974;23.708;2023-04-25T10:25:54;25.30;32.20
80212;DHT22;69530;37.974;23.708;2023-04-25T10:28:21;25.30;32.20
80212;DHT22;69530;37.974;23.708;2023-04-25T10:31:04;25.30;32.00
80212;DHT22;69530;37.974;23.708;2023-04-25T10:33:37;25.40;32.00
80212;DHT22;69530;37.974;23.708;2023-04-25T10:36:13;25.30;31.90
80212;DHT22;69530;37.974;23.708;2023-04-25T10:38:40;25.30;31.90
80212;DHT22;69530;37.974;23.708;2023-04-25T10:41:09;25.30;31.80
80212;DHT22;69530;37.974;23.708;2023-04-25T10:46:24;25.30;31.40
80212;DHT22;69530;37.974;23.708;2023-04-25T10:51:37;25.30;31.40
80212;DHT22;69530;37.974;23.708;2023-04-25T10:54:08;25.30;31.40
80212;DHT22;69530;37.974;23.708;2023-04-25T10:56:37;25.20;31.50
80212;DHT22;69530;37.974;23.708;2023-04-25T11:01:42;25.20;31.70
80212;DHT22;69530;37.974;23.708;2023-04-25T11:04:28;25.30;31.70
80212;DHT22;69530;37.974;23.708;2023-04-25T11:09:39;25.40;31.40
80212;DHT22;69530;37.974;23.708;2023-04-25T11:12:08;25.40;31.40
80212;DHT22;69530;37.974;23.708;2023-04-25T11:14:33;25.30;31.40
80212;DHT22;69530;37.974;23.708;2023-04-25T11:17:00;25.30;31.50
80212;DHT22;69530;37.974;23.708;2023-04-25T11:19:28;25.30;31.50
80212;DHT22;69530;37.974;23.708;2023-04-25T11:22:01;25.30;31.50
80212;DHT22;69530;37.974;23.708;2023-04-25T11:26:53;25.20;31.50
80212;DHT22;69530;37.974;23.708;2023-04-25T11:29:22;25.20;31.50
80212;DHT22;69530;37.974;23.708;2023-04-25T11:31:48;25.20;31.40
80212;DHT22;69530;37.974;23.708;2023-04-25T11:34:18;25.30;31.40
80212;DHT22;69530;37.974;23.708;2023-04-25T11:36:45;25.30;31.20
80212;DHT22;69530;37.974;23.708;2023-04-25T11:39:12;25.30;31.20
80212;DHT22;69530;37.974;23.708;2023-04-25T11:41:39;25.30;31.10
80212;DHT22;69530;37.974;23.708;2023-04-25T11:44:06;25.30;31.00
80212;DHT22;69530;37.974;23.708;2023-04-25T11:46:34;25.30;31.00
80212;DHT22;69530;37.974;23.708;2023-04-25T11:49:00;25.30;30.90
80212;DHT22;69530;37.974;23.708;2023-04-25T11:51:26;25.30;30.90
80212;DHT22;69530;37.974;23.708;2023-04-25T11:53:53;25.30;30.90
80212;DHT22;69530;37.974;23.708;2023-04-25T11:56:20;25.30;31.20
80212;DHT22;69530;37.974;23.708;2023-04-25T11:59:00;25.30;31.00
80212;DHT22;69530;37.974;23.708;2023-04-25T12:01:31;25.40;31.00
80212;DHT22;69530;37.974;23.708;2023-04-25T12:03:58;25.40;31.30
80212;DHT22;69530;37.974;23.708;2023-04-25T12:06:30;25.40;31.40
80212;DHT22;69530;37.974;23.708;2023-04-25T12:09:04;25.40;31.50
80212;DHT22;69530;37.974;23.708;2023-04-25T12:11:32;25.40;31.40
80212;DHT22;69530;37.974;23.708;2023-04-25T12:14:05;25.30;31.40
80212;DHT22;69530;37.974;23.708;2023-04-25T12:16:42;25.30;31.50
80212;DHT22;69530;37.974;23.708;2023-04-25T12:19:08;25.30;31.50
80212;DHT22;69530;37.974;23.708;2023-04-25T12:21:34;25.30;31.50
80212;DHT22;69530;37.974;23.708;2023-04-25T12:24:44;25.30;31.50
80212;DHT22;69530;37.974;23.708;2023-04-25T12:27:03;25.30;31.40
80212;DHT22;69530;37.974;23.708;2023-04-25T12:29:56;25.30;31.00
80212;DHT22;69530;37.974;23.708;2023-04-25T12:32:31;25.30;31.00
80212;DHT22;69530;37.974;23.708;2023-04-25T12:34:56;25.30;31.10
80212;DHT22;69530;37.974;23.708;2023-04-25T12:37:22;25.20;31.30
80212;DHT22;69530;37.974;23.708;2023-04-25T12:39:48;25.20;31.50
80212;DHT22;69530;37.974;23.708;2023-04-25T12:42:14;25.30;31.60
80212;DHT22;69530;37.974;23.708;2023-04-25T12:44:42;25.30;31.60
80212;DHT22;69530;37.974;23.708;2023-04-25T12:47:13;25.30;31.80
80212;DHT22;69530;37.974;23.708;2023-04-25T12:49:39;25.30;31.80
80212;DHT22;69530;37.974;23.708;2023-04-25T12:52:05;25.30;32.00
80212;DHT22;69530;37.974;23.708;2023-04-25T12:54:30;25.30;32.10
80212;DHT22;69530;37.974;23.708;2023-04-25T12:56:56;25.30;32.20
80212;DHT22;69530;37.974;23.708;2023-04-25T12:59:22;25.30;32.10
80212;DHT22;69530;37.974;23.708;2023-04-25T13:01:48;25.40;32.20
80212;DHT22;69530;37.974;23.708;2023-04-25T13:04:14;25.30;32.10
80212;DHT22;69530;37.974;23.708;2023-04-25T13:06:41;25.30;32.20
80212;DHT22;69530;37.974;23.708;2023-04-25T13:09:07;25.30;32.20
80212;DHT22;69530;37.974;23.708;2023-04-25T13:11:32;25.30;32.20
80212;DHT22;69530;37.974;23.708;2023-04-25T13:13:58;25.30;32.20
80212;DHT22;69530;37.974;23.708;2023-04-25T13:16:23;25.40;32.30
80212;DHT22;69530;37.974;23.708;2023-04-25T13:18:49;25.30;32.20
80212;DHT22;69530;37.974;23.708;2023-04-25T13:21:15;25.30;32.20
80212;DHT22;69530;37.974;23.708;2023-04-25T13:23:40;25.30;32.10
80212;DHT22;69530;37.974;23.708;2023-04-25T13:26:08;25.30;31.90
80212;DHT22;69530;37.974;23.708;2023-04-25T13:28:34;25.30;32.00
80212;DHT22;69530;37.974;23.708;2023-04-25T13:30:59;25.30;32.00
80212;DHT22;69530;37.974;23.708;2023-04-25T13:33:25;25.20;32.00
80212;DHT22;69530;37.974;23.708;2023-04-25T13:35:51;25.20;32.00
80212;DHT22;69530;37.974;23.708;2023-04-25T13:38:22;25.20;32.00
80212;DHT22;69530;37.974;23.708;2023-04-25T13:40:49;25.20;31.90
80212;DHT22;69530;37.974;23.708;2023-04-25T13:43:15;25.20;31.80
80212;DHT22;69530;37.974;23.708;2023-04-25T13:45:41;25.10;31.70
80212;DHT22;69530;37.974;23.708;2023-04-25T13:48:07;25.10;31.70
80212;DHT22;69530;37.974;23.708;2023-04-25T13:50:33;25.10;31.60
80212;DHT22;69530;37.974;23.708;2023-04-25T13:52:58;25.10;31.60
80212;DHT22;69530;37.974;23.708;2023-04-25T13:55:24;25.10;31.50
80212;DHT22;69530;37.974;23.708;2023-04-25T13:57:50;25.10;31.60
80212;DHT22;69530;37.974;23.708;2023-04-25T14:00:16;25.10;31.50
80212;DHT22;69530;37.974;23.708;2023-04-25T14:02:41;25.10;31.50
80212;DHT22;69530;37.974;23.708;2023-04-25T14:05:07;25.10;31.40
80212;DHT22;69530;37.974;23.708;2023-04-25T14:07:34;25.10;31.40
80212;DHT22;69530;37.974;23.708;2023-04-25T14:10:00;25.10;31.30
80212;DHT22;69530;37.974;23.708;2023-04-25T14:12:26;25.10;31.30
80212;DHT22;69530;37.974;23.708;2023-04-25T14:14:52;25.10;31.30
80212;DHT22;69530;37.974;23.708;2023-04-25T14:17:19;25.10;31.40
80212;DHT22;69530;37.974;23.708;2023-04-25T14:19:45;25.10;31.40
80212;DHT22;69530;37.974;23.708;2023-04-25T14:22:13;25.10;31.50
80212;DHT22;69530;37.974;23.708;2023-04-25T14:24:39;25.00;31.50
80212;DHT22;69530;37.974;23.708;2023-04-25T14:27:05;25.00;31.50
80212;DHT22;69530;37.974;23.708;2023-04-25T14:29:31;25.00;31.60
80212;DHT22;69530;37.974;23.708;2023-04-25T14:31:57;25.00;31.80
80212;DHT22;69530;37.974;23.708;2023-04-25T14:34:27;25.00;31.90
80212;DHT22;69530;37.974;23.708;2023-04-25T14:36:52;25.00;31.90
80212;DHT22;69530;37.974;23.708;2023-04-25T14:39:18;24.90;31.90
80212;DHT22;69530;37.974;23.708;2023-04-25T14:41:45;25.00;32.00
80212;DHT22;69530;37.974;23.708;2023-04-25T14:44:11;25.00;32.00
80212;DHT22;69530;37.974;23.708;2023-04-25T14:46:37;24.90;32.00
80212;DHT22;69530;37.974;23.708;2023-04-25T14:49:03;24.90;32.10
80212;DHT22;69530;37.974;23.708;2023-04-25T14:51:29;24.90;32.20
80212;DHT22;69530;37.974;23.708;2023-04-25T14:53:55;24.90;32.20
80212;DHT22;69530;37.974;23.708;2023-04-25T14:56:21;24.90;32.20
80212;DHT22;69530;37.974;23.708;2023-04-25T14:58:47;24.90;32.30
80212;DHT22;69530;37.974;23.708;2023-04-25T15:01:13;24.90;32.40
80212;DHT22;69530;37.974;23.708;2023-04-25T15:03:42;24.90;32.40
80212;DHT22;69530;37.974;23.708;2023-04-25T15:06:08;24.90;32.40
80212;DHT22;69530;37.974;23.708;2023-04-25T15:08:34;24.90;32.50
80212;DHT22;69530;37.974;23.708;2023-04-25T15:11:00;24.90;32.60
80212;DHT22;69530;37.974;23.708;2023-04-25T15:13:27;24.90;32.60
80212;DHT22;69530;37.974;23.708;2023-04-25T15:15:53;24.90;32.60
80212;DHT22;69530;37.974;23.708;2023-04-25T15:18:22;24.90;32.60
80212;DHT22;69530;37.974;23.708;2023-04-25T15:20:53;24.90;32.60
80212;DHT22;69530;37.974;23.708;2023-04-25T15:23:19;24.90;32.70
80212;DHT22;69530;37.974;23.708;2023-04-25T15:25:46;24.90;32.70
80212;DHT22;69530;37.974;23.708;2023-04-25T15:28:12;24.90;32.70
80212;DHT22;69530;37.974;23.708;2023-04-25T15:30:40;24.90;32.80